AKDT,Max TemperatureF,Mean TemperatureF,Min TemperatureF,Max Dew PointF,MeanDew PointF,Min DewpointF,Max Humidity, Mean Humidity, Min Humidity, Max Sea Level PressureIn, Mean Sea Level PressureIn, Min Sea Level PressureIn, Max VisibilityMiles, Mean VisibilityMiles, Min VisibilityMiles, Max Wind SpeedMPH, Mean Wind SpeedMPH, Max Gust SpeedMPH,PrecipitationIn, CloudCover, Events, WindDirDegrees
2013-3-1,42,40,37,38,37,34,93,88,76,29.95,29.90,29.83,10,9,5,15,9,20,0.26,8,Rain,122
2013-3-2,43,40,37,38,37,35,97,90,79,30.20,30.01,29.90,10,10,9,10,4,,0.06,7,Rain,357
2013-3-3,42,37,32,36,34,30,100,89,70,30.44,30.35,30.21,10,10,9,7,2,,0.00,4,,62
2013-3-4,42,35,28,33,30,25,96,82,65,30.44,30.34,30.24,10,10,10,5,1,,0.00,1,,95
2013-3-5,42,35,28,29,25,21,88,72,53,30.23,30.06,29.96,10,10,10,7,2,,0.00,0,,99
2013-3-6,41,34,27,31,27,22,82,72,59,29.98,29.95,29.94,10,10,10,15,4,,0.00,2,,339
2013-3-7,41,36,30,33,30,27,89,80,70,30.05,30.02,29.98,10,10,10,7,3,,0.00,3,,144
2013-3-8,44,38,32,37,32,28,89,76,58,30.09,30.06,30.03,10,10,10,13,5,21,0.05,6,Rain,127
2013-3-9,39,37,35,37,34,30,93,86,70,30.23,30.04,29.94,10,9,3,31,12,39,0.36,8,Rain-Snow,175
2013-3-10,39,36,33,36,34,31,100,89,73,30.31,30.29,30.25,10,9,0,13,7,,0.15,7,Fog-Rain-Snow,123
2013-3-11,37,35,33,36,33,32,100,95,86,30.29,30.13,29.94,10,5,0,14,8,20,0.47,8,Fog-Rain-Snow,118
2013-3-12,37,35,32,33,28,23,96,79,64,29.92,29.76,29.68,10,10,4,9,3,,0.00,8,Snow,60
2013-3-13,34,32,28,29,24,19,96,76,61,29.87,29.82,29.72,10,8,0,15,5,20,0.00,7,Snow,52
2013-3-14,39,34,28,28,24,19,92,65,46,29.86,29.77,29.71,10,10,10,17,5,21,0.00,5,,108
2013-3-15,41,37,33,36,32,24,100,85,64,29.94,29.83,29.69,10,7,1,25,13,33,0.19,8,Rain-Snow,115
2013-3-16,39,34,30,34,31,26,100,89,73,29.99,29.95,29.92,10,8,0,14,6,,0.16,4,Fog-Snow,52
2013-3-17,37,33,30,35,33,29,100,93,76,30.00,29.97,29.92,10,7,1,10,4,,0.29,8,Rain-Snow,139
2013-3-18,37,34,30,34,31,27,100,90,75,29.97,29.93,29.81,10,6,0,15,5,21,0.17,8,Fog-Snow,118
2013-3-19,35,32,30,34,30,22,100,91,72,29.80,29.68,29.55,10,4,0,13,7,21,0.32,7,Fog-Snow,106
2013-3-20,36,30,24,27,23,20,93,76,52,29.71,29.61,29.52,10,8,1,15,7,,0.00,3,Snow,99
2013-3-21,36,32,27,27,24,20,93,79,56,30.30,29.91,29.72,10,7,0,15,9,18,0.03,5,Fog-Snow,86
2013-3-22,37,30,24,30,24,20,88,71,52,30.35,30.32,30.26,10,9,4,10,3,,0.00,6,Snow,90
2013-3-23,42,36,30,30,26,22,76,64,59,30.25,30.15,30.06,10,10,9,17,10,25,0.00,7,Snow,104
2013-3-24,46,44,41,35,32,29,74,63,56,30.05,29.94,29.75,10,10,10,17,14,24,0.01,8,Rain,115
2013-3-25,45,41,37,39,36,33,96,84,63,29.94,29.81,29.68,10,8,3,17,12,29,0.42,8,Rain,174
2013-3-26,39,37,35,35,28,23,87,70,55,30.18,30.08,29.95,10,10,7,17,10,16,0.01,8,Rain,257
2013-3-27,42,38,33,32,29,25,85,73,53,30.22,30.20,30.18,10,10,10,16,6,,0.00,6,,327
2013-3-28,43,36,30,30,28,24,92,72,55,30.25,30.23,30.22,10,10,10,14,4,,0.00,2,,316
2013-3-29,43,36,30,35,30,25,85,73,55,30.30,30.28,30.25,10,10,10,13,4,18,0.01,4,Rain,162
2013-3-30,44,40,37,45,40,35,100,96,79,30.37,30.32,30.24,10,5,2,16,8,,0.79,8,Rain,203
2013-3-31,45,40,37,41,38,36,100,93,73,30.37,30.25,30.04,10,8,2,8,3,,0.00,8,,338